createdAt,value
2022-12-03T00:01:55.560Z,81.30
2022-12-03T00:04:27.652Z,81.68
2022-12-03T00:06:59.598Z,81.61
2022-12-03T00:09:31.607Z,82.35
2022-12-03T00:12:03.764Z,82.14
2022-12-03T00:14:39.954Z,81.70
2022-12-03T00:17:14.925Z,81.57
2022-12-03T00:19:46.875Z,81.94
2022-12-03T00:22:18.890Z,81.66
2022-12-03T00:24:51.596Z,81.37
2022-12-03T00:27:23.861Z,81.26
2022-12-03T00:29:55.813Z,81.97
2022-12-03T00:32:27.896Z,80.87
2022-12-03T00:34:59.917Z,81.39
2022-12-03T00:37:31.923Z,81.59
2022-12-03T00:40:05.880Z,80.42
2022-12-03T00:42:37.810Z,80.40
2022-12-03T00:45:10.412Z,80.51
2022-12-03T00:47:42.392Z,80.15
2022-12-03T00:50:14.377Z,80.43
2022-12-03T00:52:46.489Z,80.01
2022-12-03T00:55:18.495Z,80.01
2022-12-03T00:57:50.493Z,79.86
2022-12-03T01:00:24.731Z,80.17
2022-12-03T01:02:56.667Z,80.80
2022-12-03T01:05:28.629Z,80.30
2022-12-03T01:08:00.611Z,80.45
2022-12-03T01:10:32.619Z,80.64
2022-12-03T01:13:04.599Z,80.30
2022-12-03T01:15:36.656Z,80.48
2022-12-03T01:18:08.652Z,80.25
2022-12-03T01:20:40.770Z,80.60
2022-12-03T01:23:12.736Z,80.11
2022-12-03T01:25:44.691Z,79.84
2022-12-03T01:28:16.661Z,79.53
2022-12-03T01:31:07.598Z,79.64
2022-12-03T01:33:39.601Z,79.90
2022-12-03T01:36:11.812Z,80.01
2022-12-03T01:38:43.791Z,78.97
2022-12-03T01:41:18.286Z,79.64
2022-12-03T01:43:51.552Z,79.82
2022-12-03T01:46:28.631Z,79.73
2022-12-03T01:49:01.047Z,79.34
2022-12-03T01:51:33.061Z,79.42
2022-12-03T01:54:05.206Z,79.15
2022-12-03T01:56:37.145Z,79.57
2022-12-03T01:59:14.390Z,79.31
2022-12-03T02:01:46.575Z,79.29
2022-12-03T02:04:21.959Z,79.13
2022-12-03T02:06:54.083Z,80.12
2022-12-03T02:09:26.051Z,80.38
2022-12-03T02:11:58.292Z,79.82
2022-12-03T02:14:30.240Z,78.81
2022-12-03T02:17:02.293Z,78.19
2022-12-03T02:19:34.664Z,78.99
2022-12-03T02:22:24.045Z,78.92
2022-12-03T02:25:32.280Z,78.44
2022-12-03T02:28:06.403Z,79.00
2022-12-03T02:30:38.456Z,78.22
2022-12-03T02:33:10.807Z,77.85
2022-12-03T02:35:42.920Z,77.81
2022-12-03T02:38:25.943Z,78.31
2022-12-03T02:41:04.290Z,78.29
2022-12-03T02:43:36.844Z,77.73
2022-12-03T02:46:09.381Z,79.34
2022-12-03T02:48:41.931Z,78.54
2022-12-03T02:51:13.967Z,78.17
2022-12-03T02:53:48.900Z,78.43
2022-12-03T02:56:27.892Z,77.82
2022-12-03T02:59:03.553Z,77.51
2022-12-03T03:01:35.567Z,77.77
2022-12-03T03:04:07.626Z,76.40
2022-12-03T03:06:39.588Z,76.01
2022-12-03T03:09:11.561Z,76.31
2022-12-03T03:11:43.613Z,76.17
2022-12-03T03:14:15.800Z,76.40
2022-12-03T03:16:55.841Z,75.66
2022-12-03T03:19:30.179Z,75.38
2022-12-03T03:22:02.219Z,76.26
2022-12-03T03:24:34.202Z,76.00
2022-12-03T03:27:06.556Z,76.80
2022-12-03T03:29:38.753Z,77.20
2022-12-03T03:32:10.750Z,76.52
2022-12-03T03:34:42.853Z,75.69
2022-12-03T03:37:14.833Z,76.65
2022-12-03T03:39:46.930Z,76.40
2022-12-03T03:42:19.133Z,76.21
2022-12-03T03:44:51.542Z,76.51
2022-12-03T03:47:24.147Z,74.95
2022-12-03T03:49:56.357Z,75.70
2022-12-03T03:52:28.570Z,75.93
2022-12-03T03:55:00.706Z,77.35
2022-12-03T03:57:33.085Z,76.04
2022-12-03T04:00:08.571Z,76.33
2022-12-03T04:02:41.797Z,76.52
2022-12-03T04:05:20.592Z,76.30
2022-12-03T04:07:52.746Z,76.46
2022-12-03T04:10:43.127Z,76.18
2022-12-03T04:13:14.951Z,76.72
2022-12-03T04:15:46.977Z,76.94
2022-12-03T04:18:37.184Z,77.09
2022-12-03T04:21:37.176Z,76.86
2022-12-03T04:24:11.039Z,76.12
2022-12-03T04:27:01.397Z,76.96
2022-12-03T04:29:33.327Z,76.90
2022-12-03T04:32:24.063Z,77.73
2022-12-03T04:35:14.708Z,77.34
2022-12-03T04:37:46.719Z,77.60
2022-12-03T04:40:37.394Z,76.51
2022-12-03T04:43:09.358Z,77.06
2022-12-03T04:45:41.337Z,76.90
2022-12-03T04:48:13.315Z,76.55
2022-12-03T04:50:45.327Z,75.82
2022-12-03T04:53:17.521Z,76.33
2022-12-03T04:55:49.440Z,75.52
2022-12-03T04:58:21.424Z,74.70
2022-12-03T05:00:53.417Z,74.74
2022-12-03T05:03:25.401Z,74.96
2022-12-03T05:05:57.338Z,75.01
2022-12-03T05:08:29.300Z,75.77
2022-12-03T05:11:01.211Z,75.87
2022-12-03T05:13:33.175Z,75.42
2022-12-03T05:16:05.445Z,74.92
2022-12-03T05:18:37.453Z,74.41
2022-12-03T05:21:09.400Z,74.19
2022-12-03T05:23:42.413Z,74.99
2022-12-03T05:26:14.350Z,74.14
2022-12-03T05:28:46.342Z,74.57
2022-12-03T05:31:18.633Z,74.85
2022-12-03T05:33:50.681Z,75.84
2022-12-03T05:36:22.823Z,74.86
2022-12-03T05:38:54.780Z,75.34
2022-12-03T05:41:45.038Z,76.21
2022-12-03T05:44:20.430Z,76.25
2022-12-03T05:46:52.826Z,76.30
2022-12-03T05:49:24.778Z,76.28
2022-12-03T05:51:58.603Z,75.57
2022-12-03T05:54:30.912Z,75.89
2022-12-03T05:57:02.931Z,76.31
2022-12-03T05:59:34.905Z,76.31
2022-12-03T06:02:06.915Z,76.38
2022-12-03T06:04:38.951Z,76.27
2022-12-03T06:07:13.976Z,76.88
2022-12-03T06:09:46.361Z,75.82
2022-12-03T06:12:18.367Z,76.66
2022-12-03T06:14:50.636Z,76.50
2022-12-03T06:17:22.778Z,76.76
2022-12-03T06:19:54.727Z,76.71
2022-12-03T06:22:27.061Z,76.50
2022-12-03T06:25:04.845Z,76.90
2022-12-03T06:27:38.769Z,75.73
2022-12-03T06:30:13.903Z,76.61
2022-12-03T06:32:45.820Z,76.07
2022-12-03T06:35:17.859Z,76.96
2022-12-03T06:37:49.845Z,76.38
2022-12-03T06:40:21.805Z,77.17
2022-12-03T06:42:53.750Z,76.81
2022-12-03T06:45:25.667Z,76.86
2022-12-03T06:47:57.583Z,76.87
2022-12-03T06:50:29.555Z,77.05
2022-12-03T06:53:02.245Z,76.88
2022-12-03T06:55:34.189Z,76.61
2022-12-03T06:58:06.141Z,76.62
2022-12-03T07:00:38.069Z,76.85
2022-12-03T07:03:10.114Z,77.14
2022-12-03T07:05:42.106Z,76.83
2022-12-03T07:08:14.145Z,75.73
2022-12-03T07:10:46.170Z,75.89
2022-12-03T07:13:18.101Z,76.41
2022-12-03T07:15:50.101Z,76.07
2022-12-03T07:18:22.153Z,76.54
2022-12-03T07:20:54.332Z,76.50
2022-12-03T07:23:26.299Z,76.92
2022-12-03T07:25:58.293Z,76.61
2022-12-03T07:28:30.254Z,76.11
2022-12-03T07:31:02.325Z,76.28
2022-12-03T07:33:34.303Z,76.85
2022-12-03T07:36:06.684Z,76.47
2022-12-03T07:38:38.764Z,76.90
2022-12-03T07:41:10.847Z,76.83
2022-12-03T07:43:42.819Z,77.35
2022-12-03T07:46:14.848Z,77.72
2022-12-03T07:48:46.858Z,77.17
2022-12-03T07:51:18.897Z,77.33
2022-12-03T07:53:50.848Z,77.29
2022-12-03T07:56:22.833Z,77.03
2022-12-03T07:58:54.834Z,77.30
2022-12-03T08:01:26.925Z,76.73
2022-12-03T08:03:58.955Z,76.71
2022-12-03T08:06:31.010Z,76.98
2022-12-03T08:09:03.011Z,77.14
2022-12-03T08:11:35.015Z,77.54
2022-12-03T08:14:17.121Z,77.68
2022-12-03T08:16:49.317Z,77.55
2022-12-03T08:19:21.363Z,77.90
2022-12-03T08:21:58.063Z,76.76
2022-12-03T08:24:33.066Z,77.17
2022-12-03T08:27:16.603Z,77.17
2022-12-03T08:29:48.552Z,76.41
2022-12-03T08:32:20.685Z,77.30
2022-12-03T08:34:52.952Z,76.93
2022-12-03T08:37:25.083Z,77.29
2022-12-03T08:39:57.065Z,77.05
2022-12-03T08:42:43.448Z,76.58
2022-12-03T08:45:40.286Z,77.12
2022-12-03T08:48:21.160Z,77.58
2022-12-03T08:50:59.501Z,77.60
2022-12-03T08:53:46.473Z,77.45
2022-12-03T08:56:29.189Z,77.06
2022-12-03T08:59:31.751Z,77.16
2022-12-03T09:02:18.991Z,76.65
2022-12-03T09:04:53.246Z,77.33
2022-12-03T09:07:25.460Z,76.38
2022-12-03T09:09:57.463Z,75.33
2022-12-03T09:12:29.368Z,75.62
2022-12-03T09:15:01.451Z,75.92
2022-12-03T09:17:34.439Z,76.12
2022-12-03T09:20:07.627Z,76.69
2022-12-03T09:22:39.563Z,76.38
2022-12-03T09:25:11.564Z,76.25
2022-12-03T09:27:43.710Z,76.12
2022-12-03T09:30:16.312Z,76.00
2022-12-03T09:32:48.249Z,76.47
2022-12-03T09:35:20.206Z,76.22
2022-12-03T09:37:52.457Z,75.31
2022-12-03T09:40:24.611Z,76.57
2022-12-03T09:42:58.711Z,76.33
2022-12-03T09:45:30.853Z,76.50
2022-12-03T09:48:04.823Z,76.15
2022-12-03T09:50:40.615Z,76.16
2022-12-03T09:53:20.083Z,76.03
2022-12-03T09:55:52.167Z,75.84
2022-12-03T09:58:31.725Z,76.00
2022-12-03T10:01:14.355Z,75.33
2022-12-03T10:03:50.506Z,75.34
2022-12-03T10:06:24.223Z,75.61
2022-12-03T10:08:56.480Z,74.47
2022-12-03T10:11:30.274Z,74.24
2022-12-03T10:14:02.311Z,74.19
2022-12-03T10:16:36.188Z,74.10
2022-12-03T10:19:23.056Z,73.27
2022-12-03T10:21:56.032Z,73.88
2022-12-03T10:24:29.041Z,73.37
2022-12-03T10:27:20.736Z,73.24
2022-12-03T10:30:02.126Z,71.60
2022-12-03T10:32:47.178Z,73.27
2022-12-03T10:35:26.988Z,73.60
2022-12-03T10:38:16.552Z,71.72
2022-12-03T10:40:48.780Z,73.16
2022-12-03T10:43:23.748Z,73.29
2022-12-03T10:46:04.140Z,72.62
2022-12-03T10:48:36.781Z,71.48
2022-12-03T10:51:22.491Z,71.89
2022-12-03T10:53:54.610Z,70.79
2022-12-03T10:56:27.848Z,70.29
2022-12-03T10:58:59.798Z,70.25
2022-12-03T11:01:32.413Z,71.21
2022-12-03T11:04:05.756Z,70.63
2022-12-03T11:06:37.800Z,70.18
2022-12-03T11:09:25.499Z,71.69
2022-12-03T11:12:05.059Z,72.69
2022-12-03T11:14:50.794Z,72.20
2022-12-03T11:17:50.032Z,71.98
2022-12-03T11:20:24.979Z,71.92
2022-12-03T11:22:58.684Z,71.40
2022-12-03T11:25:37.144Z,71.98
2022-12-03T11:28:12.175Z,71.48
2022-12-03T11:30:59.181Z,70.53
2022-12-03T11:33:41.600Z,70.27
2022-12-03T11:36:15.714Z,69.72
2022-12-03T11:38:54.172Z,69.93
2022-12-03T11:41:30.571Z,69.01
2022-12-03T11:44:31.551Z,69.61
2022-12-03T11:47:14.711Z,69.20
2022-12-03T11:49:48.766Z,69.40
2022-12-03T11:52:30.907Z,69.18
2022-12-03T11:55:37.444Z,68.76
2022-12-03T11:58:27.934Z,70.30
2022-12-03T12:01:02.811Z,70.87
2022-12-03T12:03:46.393Z,70.13
2022-12-03T12:06:21.159Z,69.87
2022-12-03T12:08:53.084Z,69.87
2022-12-03T12:11:37.310Z,69.42
2022-12-03T12:14:12.196Z,71.04
2022-12-03T12:16:51.476Z,71.01
2022-12-03T12:19:40.241Z,71.03
2022-12-03T12:22:18.189Z,70.40
2022-12-03T12:25:06.967Z,70.88
2022-12-03T12:27:45.669Z,70.15
2022-12-03T12:30:21.836Z,69.07
2022-12-03T12:33:10.325Z,69.51
2022-12-03T12:35:42.722Z,69.26
2022-12-03T12:38:20.859Z,69.65
2022-12-03T12:40:53.344Z,68.75
2022-12-03T12:43:33.889Z,69.57
2022-12-03T12:46:45.965Z,68.91
2022-12-03T12:49:12.273Z,69.04
2022-12-03T12:51:46.800Z,69.49
2022-12-03T12:54:19.000Z,69.26
2022-12-03T12:56:51.037Z,69.50
2022-12-03T12:59:24.541Z,69.65
2022-12-03T13:01:56.642Z,68.68
2022-12-03T13:04:30.803Z,68.73
2022-12-03T13:07:02.770Z,68.84
2022-12-03T13:09:34.713Z,68.18
2022-12-03T13:12:18.933Z,68.43
2022-12-03T13:14:52.331Z,67.50
2022-12-03T13:17:26.160Z,67.38
2022-12-03T13:20:07.283Z,67.12
2022-12-03T13:22:40.000Z,67.51
2022-12-03T13:28:30.901Z,68.58
2022-12-03T13:31:28.700Z,67.35
2022-12-03T13:34:02.329Z,67.86
2022-12-03T13:36:43.844Z,69.28
2022-12-03T13:39:35.489Z,69.82
2022-12-03T13:42:39.548Z,69.59
2022-12-03T13:45:14.741Z,70.18
2022-12-03T13:48:00.120Z,69.95
2022-12-03T13:50:40.598Z,70.04
2022-12-03T13:53:25.004Z,70.45
2022-12-03T13:56:32.842Z,70.37
2022-12-03T13:59:04.935Z,69.98
2022-12-03T14:01:37.099Z,70.76
2022-12-03T14:04:09.666Z,70.94
2022-12-03T14:06:41.694Z,70.54
2022-12-03T14:09:13.784Z,71.04
2022-12-03T14:12:04.106Z,70.61
2022-12-03T14:14:36.151Z,69.94
2022-12-03T14:17:09.775Z,70.99
2022-12-03T14:19:41.958Z,70.84
2022-12-03T14:22:13.954Z,70.32
2022-12-03T14:24:46.021Z,71.02
2022-12-03T14:27:19.101Z,70.58
2022-12-03T14:29:52.438Z,70.25
2022-12-03T14:32:24.826Z,70.95
2022-12-03T14:34:56.929Z,70.82
2022-12-03T14:37:41.474Z,70.82
2022-12-03T14:40:19.606Z,69.04
2022-12-03T14:42:53.449Z,70.67
2022-12-03T14:45:27.753Z,70.64
2022-12-03T14:47:59.787Z,70.26
2022-12-03T14:50:31.789Z,71.08
2022-12-03T14:53:03.859Z,70.86
2022-12-03T14:55:36.126Z,71.13
2022-12-03T14:58:08.245Z,72.30
2022-12-03T15:00:40.195Z,71.86
2022-12-03T15:03:12.243Z,72.65
2022-12-03T15:05:44.375Z,71.38
2022-12-03T15:08:16.567Z,71.60
2022-12-03T15:10:52.093Z,72.61
2022-12-03T15:13:24.128Z,71.64
2022-12-03T15:15:56.285Z,71.52
2022-12-03T15:18:30.760Z,72.18
2022-12-03T15:21:02.769Z,71.58
2022-12-03T15:23:34.890Z,70.94
2022-12-03T15:26:07.093Z,71.56
2022-12-03T15:28:42.974Z,71.64
2022-12-03T15:31:17.485Z,72.25
2022-12-03T15:34:02.311Z,71.54
2022-12-03T15:36:34.279Z,71.94
2022-12-03T15:39:06.367Z,71.63
2022-12-03T15:41:38.583Z,71.85
2022-12-03T15:44:10.637Z,72.22
2022-12-03T15:46:42.772Z,72.45
2022-12-03T15:49:14.881Z,72.21
2022-12-03T15:51:47.444Z,71.64
2022-12-03T15:54:19.715Z,72.52
2022-12-03T15:56:57.028Z,72.18
2022-12-03T15:59:29.508Z,72.34
2022-12-03T16:02:01.796Z,72.33
2022-12-03T16:04:33.861Z,71.96
2022-12-03T16:07:05.826Z,71.48
2022-12-03T16:09:37.916Z,72.55
2022-12-03T16:12:09.911Z,72.89
2022-12-03T16:14:41.929Z,71.62
2022-12-03T16:17:13.968Z,72.04
2022-12-03T16:19:46.687Z,72.12
2022-12-03T16:22:18.746Z,72.65
2022-12-03T16:24:50.762Z,73.19
2022-12-03T16:27:25.665Z,73.24
2022-12-03T16:29:58.165Z,72.61
2022-12-03T16:32:30.177Z,72.87
2022-12-03T16:35:02.377Z,72.83
2022-12-03T16:37:34.413Z,72.58
2022-12-03T16:40:07.557Z,72.45
2022-12-03T16:42:39.709Z,72.58
2022-12-03T16:45:30.070Z,72.98
2022-12-03T16:48:02.534Z,73.78
2022-12-03T16:50:37.789Z,73.50
2022-12-03T16:53:17.576Z,74.06
2022-12-03T16:55:49.550Z,73.64
2022-12-03T16:58:21.679Z,73.82
2022-12-03T17:00:54.362Z,74.84
2022-12-03T17:03:33.656Z,74.32
2022-12-03T17:06:06.515Z,74.17
2022-12-03T17:08:38.483Z,74.21
2022-12-03T17:11:10.632Z,74.58
2022-12-03T17:13:42.611Z,75.10
2022-12-03T17:16:14.816Z,75.23
2022-12-03T17:18:46.889Z,74.87
2022-12-03T17:21:18.843Z,74.14
2022-12-03T17:23:51.165Z,74.39
2022-12-03T17:26:23.252Z,74.11
2022-12-03T17:28:55.239Z,74.31
2022-12-03T17:31:27.351Z,73.61
2022-12-03T17:33:59.450Z,73.77
2022-12-03T17:36:31.408Z,73.94
2022-12-03T17:39:03.649Z,73.82
2022-12-03T17:41:35.649Z,74.07
2022-12-03T17:44:11.386Z,74.29
2022-12-03T17:46:45.184Z,74.86
2022-12-03T17:49:17.382Z,74.76
2022-12-03T17:51:50.397Z,74.52
2022-12-03T17:54:22.733Z,74.81
2022-12-03T17:56:54.825Z,75.07
2022-12-03T17:59:26.970Z,75.85
2022-12-03T18:01:59.053Z,76.43
2022-12-03T18:04:31.101Z,76.84
2022-12-03T18:07:03.247Z,76.55
2022-12-03T18:09:35.339Z,76.10
2022-12-03T18:12:07.553Z,75.60
2022-12-03T18:14:39.525Z,76.48
2022-12-03T18:17:11.477Z,76.85
2022-12-03T18:19:43.455Z,76.89
2022-12-03T18:22:15.898Z,77.11
2022-12-03T18:24:51.543Z,76.38
2022-12-03T18:27:24.838Z,76.66
2022-12-03T18:29:57.467Z,76.94
2022-12-03T18:32:30.105Z,77.02
2022-12-03T18:35:02.315Z,75.94
2022-12-03T18:37:34.609Z,76.85
2022-12-03T18:40:13.197Z,76.83
2022-12-03T18:42:46.032Z,76.64
2022-12-03T18:45:18.376Z,76.99
2022-12-03T18:47:50.580Z,76.73
2022-12-03T18:50:22.605Z,76.71
2022-12-03T18:52:54.569Z,76.68
2022-12-03T18:55:33.756Z,77.58
2022-12-03T18:58:05.821Z,78.05
2022-12-03T19:00:38.919Z,77.90
2022-12-03T19:03:11.184Z,78.48
2022-12-03T19:05:43.159Z,78.76
2022-12-03T19:08:15.486Z,78.29
2022-12-03T19:10:59.440Z,78.77
2022-12-03T19:13:31.512Z,78.14
2022-12-03T19:16:04.833Z,78.44
2022-12-03T19:18:37.014Z,78.82
2022-12-03T19:21:15.504Z,78.47
2022-12-03T19:24:22.221Z,78.40
2022-12-03T19:26:39.837Z,78.08
2022-12-03T19:29:12.141Z,77.86
2022-12-03T19:31:44.111Z,77.70
2022-12-03T19:34:16.638Z,78.41
2022-12-03T19:36:48.635Z,78.15
2022-12-03T19:39:20.625Z,77.96
2022-12-03T19:41:52.573Z,77.36
2022-12-03T19:44:24.881Z,77.09
2022-12-03T19:46:57.421Z,77.17
2022-12-03T19:49:29.533Z,76.45
2022-12-03T19:52:01.549Z,75.73
2022-12-03T19:54:33.592Z,76.48
2022-12-03T19:57:05.536Z,76.81
2022-12-03T19:59:37.508Z,76.81
2022-12-03T20:02:12.607Z,76.96
2022-12-03T20:04:44.659Z,76.44
2022-12-03T20:07:17.070Z,77.77
2022-12-03T20:09:51.631Z,77.81
2022-12-03T20:12:23.815Z,77.46
2022-12-03T20:14:55.829Z,77.13
2022-12-03T20:17:27.732Z,77.11
2022-12-03T20:19:59.707Z,76.77
2022-12-03T20:22:31.624Z,76.35
2022-12-03T20:25:04.076Z,75.95
2022-12-03T20:27:36.469Z,75.66
2022-12-03T20:30:09.132Z,75.51
2022-12-03T20:32:45.249Z,75.52
2022-12-03T20:35:17.734Z,76.23
2022-12-03T20:37:49.696Z,75.52
2022-12-03T20:40:21.705Z,76.93
2022-12-03T20:42:53.774Z,76.51
2022-12-03T20:45:27.008Z,76.80
2022-12-03T20:47:59.077Z,76.47
2022-12-03T20:50:31.085Z,76.04
2022-12-03T20:53:23.753Z,76.18
2022-12-03T20:55:56.929Z,76.89
2022-12-03T20:58:30.633Z,76.61
2022-12-03T21:01:21.192Z,76.98
2022-12-03T21:03:55.496Z,76.68
2022-12-03T21:06:30.030Z,76.22
2022-12-03T21:09:04.657Z,76.69
2022-12-03T21:11:40.205Z,77.58
2022-12-03T21:14:12.566Z,77.05
2022-12-03T21:17:07.861Z,75.78
2022-12-03T21:19:40.951Z,76.17
2022-12-03T21:22:13.023Z,75.42
2022-12-03T21:24:45.189Z,75.85
2022-12-03T21:27:21.552Z,75.36
2022-12-03T21:29:54.627Z,76.11
2022-12-03T21:32:26.718Z,76.19
2022-12-03T21:34:58.673Z,76.91
2022-12-03T21:37:30.639Z,75.90
2022-12-03T21:40:02.579Z,76.30
2022-12-03T21:42:37.199Z,76.34
2022-12-03T21:45:09.979Z,76.05
2022-12-03T21:47:42.003Z,76.51
2022-12-03T21:50:14.878Z,76.53
2022-12-03T21:52:46.947Z,76.06
2022-12-03T21:55:18.932Z,75.72
2022-12-03T21:57:50.968Z,76.22
2022-12-03T22:00:32.665Z,76.32
2022-12-03T22:03:05.067Z,76.43
2022-12-03T22:05:39.046Z,75.96
2022-12-03T22:08:11.124Z,76.22
2022-12-03T22:10:45.295Z,77.17
2022-12-03T22:13:17.380Z,76.21
2022-12-03T22:15:49.420Z,76.75
2022-12-03T22:18:21.573Z,76.70
2022-12-03T22:20:53.647Z,76.60
2022-12-03T22:23:25.632Z,75.41
2022-12-03T22:26:09.094Z,75.89
2022-12-03T22:28:50.030Z,75.64
2022-12-03T22:31:22.017Z,76.29
2022-12-03T22:33:54.074Z,76.03
2022-12-03T22:36:25.985Z,75.61
2022-12-03T22:38:58.427Z,76.15
2022-12-03T22:41:30.379Z,76.99
2022-12-03T22:44:02.607Z,77.15
2022-12-03T22:46:34.587Z,76.90
2022-12-03T22:49:07.608Z,76.74
2022-12-03T22:51:40.139Z,77.24
2022-12-03T22:54:12.640Z,77.45
2022-12-03T22:56:44.767Z,76.49
2022-12-03T22:59:16.763Z,76.52
2022-12-03T23:01:48.907Z,77.28
2022-12-03T23:04:21.634Z,77.18
2022-12-03T23:06:53.650Z,77.25
2022-12-03T23:09:25.679Z,76.61
2022-12-03T23:11:57.623Z,76.99
2022-12-03T23:14:29.558Z,77.13
2022-12-03T23:17:01.520Z,77.14
2022-12-03T23:19:33.530Z,76.20
2022-12-03T23:22:05.511Z,76.49
2022-12-03T23:24:37.478Z,76.97
2022-12-03T23:27:09.532Z,77.12
2022-12-03T23:29:41.508Z,77.60
2022-12-03T23:32:13.484Z,77.56
2022-12-03T23:34:45.639Z,77.17
2022-12-03T23:37:17.677Z,77.05
2022-12-03T23:39:54.431Z,78.25
2022-12-03T23:42:26.601Z,77.09
2022-12-03T23:44:58.645Z,77.38
2022-12-03T23:47:31.310Z,78.21
2022-12-03T23:50:04.980Z,78.09
2022-12-03T23:52:37.046Z,77.20
2022-12-03T23:55:10.626Z,77.74
2022-12-03T23:57:42.586Z,78.08
